createdAt,value
2019-03-09T00:00:36.687Z,9.54
2019-03-09T00:03:10.027Z,9.52
2019-03-09T00:05:43.687Z,9.63
2019-03-09T00:08:17.131Z,9.65
2019-03-09T00:10:50.472Z,9.65
2019-03-09T00:13:23.819Z,9.61
2019-03-09T00:15:57.144Z,9.62
2019-03-09T00:18:30.766Z,9.64
2019-03-09T00:21:04.315Z,9.69
2019-03-09T00:23:39.470Z,9.64
2019-03-09T00:26:20.355Z,9.68
2019-03-09T00:28:55.459Z,9.57
2019-03-09T00:31:36.288Z,9.67
2019-03-09T00:34:09.614Z,9.63
2019-03-09T00:36:42.957Z,9.65
2019-03-09T00:39:18.205Z,9.68
2019-03-09T00:41:51.572Z,9.78
2019-03-09T00:44:24.970Z,9.75
2019-03-09T00:46:58.551Z,9.75
2019-03-09T00:49:32.104Z,9.71
2019-03-09T00:52:05.519Z,9.73
2019-03-09T00:54:38.829Z,9.68
2019-03-09T00:57:12.256Z,9.83
2019-03-09T00:59:45.589Z,9.76
2019-03-09T01:02:19.028Z,9.83
2019-03-09T01:04:52.443Z,9.88
2019-03-09T01:07:25.879Z,9.81
2019-03-09T01:09:59.204Z,9.91
2019-03-09T01:12:32.545Z,9.97
2019-03-09T01:15:07.800Z,9.93
2019-03-09T01:17:41.174Z,9.95
2019-03-09T01:20:16.135Z,9.85
2019-03-09T01:22:49.493Z,9.85
2019-03-09T01:25:22.791Z,9.77
2019-03-09T01:27:56.202Z,9.79
2019-03-09T01:30:29.506Z,9.74
2019-03-09T01:33:02.845Z,9.76
2019-03-09T01:35:36.171Z,9.64
2019-03-09T01:38:09.546Z,9.54
2019-03-09T01:40:42.926Z,9.60
2019-03-09T01:43:16.304Z,9.65
2019-03-09T01:45:49.616Z,9.71
2019-03-09T01:48:22.965Z,9.75
2019-03-09T01:50:56.346Z,9.73
2019-03-09T01:53:36.374Z,9.71
2019-03-09T01:56:04.810Z,9.70
2019-03-09T01:58:38.169Z,9.63
2019-03-09T02:01:11.569Z,9.61
2019-03-09T02:03:44.918Z,9.59
2019-03-09T02:06:18.236Z,9.61
2019-03-09T02:08:51.652Z,9.59
2019-03-09T02:11:25.036Z,9.55
2019-03-09T02:13:58.444Z,9.48
2019-03-09T02:16:31.768Z,9.45
2019-03-09T02:19:05.185Z,9.40
2019-03-09T02:21:38.489Z,9.53
2019-03-09T02:24:11.838Z,9.54
2019-03-09T02:26:45.191Z,9.56
2019-03-09T02:29:18.618Z,9.54
2019-03-09T02:31:52.015Z,9.53
2019-03-09T02:34:25.368Z,9.46
2019-03-09T02:36:58.706Z,9.41
2019-03-09T02:39:42.342Z,9.41
2019-03-09T02:42:15.670Z,9.26
2019-03-09T02:44:49.470Z,9.24
2019-03-09T02:47:22.803Z,9.31
2019-03-09T02:49:56.152Z,9.39
2019-03-09T02:52:29.484Z,9.35
2019-03-09T02:55:02.929Z,9.41
2019-03-09T02:57:36.259Z,9.42
2019-03-09T03:00:18.722Z,9.39
2019-03-09T03:02:53.699Z,9.46
2019-03-09T03:05:27.095Z,9.52
2019-03-09T03:08:00.442Z,9.51
2019-03-09T03:10:33.806Z,9.51
2019-03-09T03:13:07.431Z,9.61
2019-03-09T03:15:40.788Z,9.42
2019-03-09T03:18:14.202Z,9.52
2019-03-09T03:20:47.574Z,9.43
2019-03-09T03:23:20.911Z,9.55
2019-03-09T03:25:54.338Z,9.45
2019-03-09T03:28:27.761Z,9.45
2019-03-09T03:31:01.213Z,9.49
2019-03-09T03:33:34.618Z,9.45
2019-03-09T03:36:08.061Z,9.42
2019-03-09T03:38:41.402Z,9.40
2019-03-09T03:41:14.847Z,9.14
2019-03-09T03:43:48.246Z,9.32
2019-03-09T03:46:21.693Z,9.32
2019-03-09T03:48:55.036Z,9.37
2019-03-09T03:51:28.431Z,9.20
2019-03-09T03:54:01.830Z,9.34
2019-03-09T03:56:35.427Z,9.31
2019-03-09T03:59:08.874Z,9.20
2019-03-09T04:01:42.353Z,9.16
2019-03-09T04:04:15.790Z,9.30
2019-03-09T04:06:49.220Z,9.35
2019-03-09T04:09:22.741Z,9.12
2019-03-09T04:11:56.136Z,9.15
2019-03-09T04:14:29.539Z,9.15
2019-03-09T04:17:02.874Z,9.17
2019-03-09T04:19:36.346Z,9.29
2019-03-09T04:22:09.822Z,9.28
2019-03-09T04:24:43.222Z,9.18
2019-03-09T04:27:16.680Z,9.15
2019-03-09T04:29:50.110Z,9.26
2019-03-09T04:32:23.508Z,9.25
2019-03-09T04:34:56.945Z,9.31
2019-03-09T04:37:30.296Z,9.34
2019-03-09T04:40:09.504Z,9.42
2019-03-09T04:42:42.837Z,9.40
2019-03-09T04:45:16.264Z,9.32
2019-03-09T04:47:49.668Z,9.42
2019-03-09T04:50:23.073Z,9.40
2019-03-09T04:52:57.303Z,9.48
2019-03-09T04:55:30.725Z,9.46
2019-03-09T04:58:04.054Z,9.61
2019-03-09T05:00:37.490Z,9.48
2019-03-09T05:03:10.887Z,9.33
2019-03-09T05:05:44.322Z,9.33
2019-03-09T05:08:20.842Z,9.46
2019-03-09T05:11:00.431Z,9.55
2019-03-09T05:13:36.798Z,9.49
2019-03-09T05:16:10.216Z,9.46
2019-03-09T05:18:43.541Z,9.39
2019-03-09T05:21:17.024Z,9.43
2019-03-09T05:23:50.424Z,9.49
2019-03-09T05:26:23.806Z,9.46
2019-03-09T05:28:57.226Z,9.39
2019-03-09T05:31:30.746Z,9.55
2019-03-09T05:34:04.261Z,9.56
2019-03-09T05:36:37.793Z,9.58
2019-03-09T05:39:11.256Z,9.58
2019-03-09T05:41:44.629Z,9.64
2019-03-09T05:44:19.616Z,9.54
2019-03-09T05:46:52.984Z,9.80
2019-03-09T05:49:26.332Z,9.76
2019-03-09T05:52:19.725Z,9.77
2019-03-09T05:54:53.278Z,9.77
2019-03-09T05:57:26.745Z,9.47
2019-03-09T06:00:00.453Z,9.69
2019-03-09T06:02:33.971Z,9.85
2019-03-09T06:05:33.994Z,9.84
2019-03-09T06:08:07.876Z,9.89
2019-03-09T06:10:41.611Z,9.97
2019-03-09T06:13:15.099Z,9.98
2019-03-09T06:15:48.487Z,9.87
2019-03-09T06:18:21.835Z,9.96
2019-03-09T06:20:55.277Z,9.92
2019-03-09T06:23:28.614Z,9.82
2019-03-09T06:26:02.174Z,9.99
2019-03-09T06:28:35.655Z,9.95
2019-03-09T06:31:09.131Z,9.94
2019-03-09T06:33:42.552Z,9.92
2019-03-09T06:36:19.126Z,10.12
2019-03-09T06:38:57.819Z,10.04
2019-03-09T06:41:53.717Z,10.03
2019-03-09T06:44:27.111Z,10.06
2019-03-09T06:47:00.562Z,10.14
2019-03-09T06:49:33.984Z,10.25
2019-03-09T06:52:07.484Z,10.29
2019-03-09T06:54:40.944Z,10.24
2019-03-09T06:57:14.390Z,10.15
2019-03-09T06:59:47.862Z,10.20
2019-03-09T07:02:21.395Z,10.37
2019-03-09T07:04:54.808Z,10.34
2019-03-09T07:07:28.402Z,10.20
2019-03-09T07:10:01.732Z,10.38
2019-03-09T07:12:35.098Z,10.30
2019-03-09T07:15:17.573Z,10.38
2019-03-09T07:17:52.142Z,10.43
2019-03-09T07:20:25.536Z,10.56
2019-03-09T07:22:59.099Z,10.63
2019-03-09T07:25:32.599Z,10.56
2019-03-09T07:28:08.684Z,10.45
2019-03-09T07:30:42.090Z,10.55
2019-03-09T07:33:16.169Z,10.61
2019-03-09T07:35:49.601Z,10.49
2019-03-09T07:38:23.042Z,10.48
2019-03-09T07:40:56.470Z,10.54
2019-03-09T07:43:29.912Z,10.28
2019-03-09T07:46:03.326Z,10.41
2019-03-09T07:48:36.930Z,10.40
2019-03-09T07:51:10.342Z,10.53
2019-03-09T07:53:43.772Z,10.47
2019-03-09T07:56:17.424Z,10.64
2019-03-09T07:58:50.802Z,10.63
2019-03-09T08:01:24.342Z,10.93
2019-03-09T08:03:57.686Z,10.85
2019-03-09T08:06:31.046Z,10.74
2019-03-09T08:09:05.876Z,10.87
2019-03-09T08:11:39.283Z,11.07
2019-03-09T08:14:12.652Z,11.34
2019-03-09T08:16:48.028Z,11.51
2019-03-09T08:19:21.365Z,11.29
2019-03-09T08:21:54.752Z,11.60
2019-03-09T08:24:28.077Z,11.70
2019-03-09T08:27:01.590Z,11.84
2019-03-09T08:29:35.036Z,11.80
2019-03-09T08:32:08.510Z,11.86
2019-03-09T08:34:42.043Z,12.02
2019-03-09T08:37:15.518Z,11.84
2019-03-09T08:39:48.922Z,11.85
2019-03-09T08:42:22.288Z,11.42
2019-03-09T08:44:55.651Z,11.38
2019-03-09T08:47:29.045Z,11.30
2019-03-09T08:50:02.461Z,11.33
2019-03-09T08:52:36.057Z,11.26
2019-03-09T08:55:11.058Z,11.29
2019-03-09T08:57:44.653Z,11.26
2019-03-09T09:00:20.895Z,11.16
2019-03-09T09:02:54.398Z,11.09
2019-03-09T09:05:27.835Z,11.08
2019-03-09T09:08:03.605Z,11.21
2019-03-09T09:10:36.325Z,11.24
2019-03-09T09:13:09.716Z,11.28
2019-03-09T09:15:43.055Z,11.40
2019-03-09T09:18:16.425Z,11.37
2019-03-09T09:20:49.781Z,11.54
2019-03-09T09:23:23.221Z,11.50
2019-03-09T09:25:56.554Z,11.53
2019-03-09T09:28:29.938Z,11.41
2019-03-09T09:31:03.336Z,11.34
2019-03-09T09:33:36.902Z,11.34
2019-03-09T09:36:10.310Z,11.56
2019-03-09T09:38:43.683Z,11.86
2019-03-09T09:41:17.037Z,11.74
2019-03-09T09:43:50.411Z,11.76
2019-03-09T09:46:23.810Z,11.76
2019-03-09T09:48:57.220Z,11.70
2019-03-09T09:51:30.639Z,11.69
2019-03-09T09:54:04.154Z,11.57
2019-03-09T09:56:37.559Z,11.63
2019-03-09T09:59:10.936Z,11.73
2019-03-09T10:01:44.275Z,11.67
2019-03-09T10:04:17.675Z,11.78
2019-03-09T10:06:51.083Z,12.05
2019-03-09T10:09:24.520Z,12.00
2019-03-09T10:11:57.857Z,12.01
2019-03-09T10:14:31.233Z,12.05
2019-03-09T10:17:04.696Z,12.21
2019-03-09T10:19:38.126Z,12.26
2019-03-09T10:22:11.537Z,12.18
2019-03-09T10:24:44.932Z,11.84
2019-03-09T10:27:18.285Z,12.35
2019-03-09T10:29:51.830Z,12.74
2019-03-09T10:32:25.613Z,12.37
2019-03-09T10:34:59.166Z,13.10
2019-03-09T10:37:32.693Z,13.48
2019-03-09T10:40:09.099Z,13.69
2019-03-09T10:42:42.447Z,13.61
2019-03-09T10:45:18.220Z,13.44
2019-03-09T10:47:51.902Z,13.41
2019-03-09T10:50:26.107Z,13.24
2019-03-09T10:52:59.621Z,13.22
2019-03-09T10:55:34.331Z,12.98
2019-03-09T10:58:07.661Z,12.89
2019-03-09T11:00:45.452Z,13.11
2019-03-09T11:03:18.882Z,12.94
2019-03-09T11:05:52.406Z,12.89
2019-03-09T11:08:25.905Z,12.87
2019-03-09T11:10:59.373Z,12.93
2019-03-09T11:13:32.711Z,12.92
2019-03-09T11:16:06.093Z,12.95
2019-03-09T11:18:39.438Z,12.93
2019-03-09T11:21:12.885Z,12.84
2019-03-09T11:23:46.427Z,12.78
2019-03-09T11:26:19.935Z,12.95
2019-03-09T11:28:53.263Z,12.97
2019-03-09T11:31:26.625Z,13.31
2019-03-09T11:33:59.990Z,13.48
2019-03-09T11:36:33.420Z,13.71
2019-03-09T11:39:07.835Z,13.65
2019-03-09T11:41:41.364Z,13.68
2019-03-09T11:44:14.701Z,13.80
2019-03-09T11:46:48.058Z,13.60
2019-03-09T11:49:21.395Z,13.41
2019-03-09T11:51:54.900Z,13.40
2019-03-09T11:54:28.385Z,13.47
2019-03-09T11:57:01.847Z,13.95
2019-03-09T11:59:35.313Z,14.55
2019-03-09T12:02:08.856Z,14.93
2019-03-09T12:04:46.712Z,14.63
2019-03-09T12:07:17.392Z,14.64
2019-03-09T12:09:50.773Z,14.84
2019-03-09T12:12:24.185Z,14.82
2019-03-09T12:14:57.631Z,14.70
2019-03-09T12:17:31.390Z,14.64
2019-03-09T12:20:07.095Z,14.66
2019-03-09T12:22:40.685Z,14.59
2019-03-09T12:25:18.175Z,14.49
2019-03-09T12:27:51.538Z,14.65
2019-03-09T12:30:24.953Z,14.61
2019-03-09T12:32:58.321Z,15.12
2019-03-09T12:35:31.842Z,14.80
2019-03-09T12:38:05.167Z,14.86
2019-03-09T12:40:38.611Z,15.12
2019-03-09T12:43:12.012Z,14.98
2019-03-09T12:45:45.411Z,14.97
2019-03-09T12:48:18.822Z,14.59
2019-03-09T12:50:52.352Z,14.29
2019-03-09T12:53:25.781Z,14.48
2019-03-09T12:55:59.149Z,14.61
2019-03-09T12:58:32.560Z,14.52
2019-03-09T13:01:05.930Z,14.30
2019-03-09T13:03:39.355Z,14.43
2019-03-09T13:06:12.875Z,14.39
2019-03-09T13:08:46.220Z,14.39
2019-03-09T13:11:19.590Z,14.30
2019-03-09T13:13:52.986Z,14.49
2019-03-09T13:16:26.345Z,14.51
2019-03-09T13:18:59.679Z,14.34
2019-03-09T13:21:33.124Z,14.39
2019-03-09T13:24:06.555Z,14.65
2019-03-09T13:26:39.930Z,14.82
2019-03-09T13:29:13.325Z,14.66
2019-03-09T13:31:46.702Z,14.63
2019-03-09T13:34:20.056Z,14.43
2019-03-09T13:36:53.675Z,14.47
2019-03-09T13:39:27.081Z,14.35
2019-03-09T13:42:00.451Z,14.55
2019-03-09T13:44:33.783Z,14.56
2019-03-09T13:47:07.559Z,14.64
2019-03-09T13:49:40.895Z,14.52
2019-03-09T13:52:14.260Z,14.42
2019-03-09T13:54:47.589Z,14.30
2019-03-09T13:57:20.968Z,14.16
2019-03-09T13:59:54.570Z,14.05
2019-03-09T14:02:28.085Z,14.06
2019-03-09T14:05:01.616Z,13.99
2019-03-09T14:07:35.076Z,13.96
2019-03-09T14:10:13.185Z,14.07
2019-03-09T14:12:46.567Z,14.14
2019-03-09T14:15:20.090Z,14.46
2019-03-09T14:17:53.843Z,14.38
2019-03-09T14:20:27.561Z,14.40
2019-03-09T14:23:01.062Z,14.24
2019-03-09T14:25:34.457Z,14.32
2019-03-09T14:28:07.903Z,14.32
2019-03-09T14:30:41.411Z,14.24
2019-03-09T14:33:14.784Z,14.23
2019-03-09T14:35:48.146Z,14.28
2019-03-09T14:38:21.535Z,14.12
2019-03-09T14:40:54.870Z,14.12
2019-03-09T14:43:28.259Z,14.20
2019-03-09T14:46:01.586Z,14.14
2019-03-09T14:48:34.957Z,14.21
2019-03-09T14:51:08.376Z,14.07
2019-03-09T14:53:41.801Z,14.13
2019-03-09T14:56:15.141Z,14.06
2019-03-09T14:58:48.586Z,13.81
2019-03-09T15:01:21.990Z,13.81
2019-03-09T15:03:55.435Z,13.66
2019-03-09T15:06:28.857Z,13.48
2019-03-09T15:09:02.219Z,13.45
2019-03-09T15:11:35.623Z,13.59
2019-03-09T15:14:08.993Z,13.47
2019-03-09T15:16:42.358Z,13.38
2019-03-09T15:19:15.705Z,13.32
2019-03-09T15:21:49.099Z,13.47
2019-03-09T15:24:22.699Z,13.48
2019-03-09T15:26:56.051Z,13.48
2019-03-09T15:29:29.478Z,13.49
2019-03-09T15:32:02.872Z,13.44
2019-03-09T15:34:36.270Z,13.39
2019-03-09T15:37:09.710Z,13.42
2019-03-09T15:39:43.107Z,13.14
2019-03-09T15:42:16.532Z,13.08
2019-03-09T15:44:49.871Z,12.96
2019-03-09T15:47:23.375Z,13.06
2019-03-09T15:49:56.851Z,12.88
2019-03-09T15:52:30.240Z,12.80
2019-03-09T15:55:04.120Z,12.79
2019-03-09T15:57:37.552Z,12.65
2019-03-09T16:00:23.988Z,12.47
2019-03-09T16:02:57.352Z,11.98
2019-03-09T16:05:30.788Z,11.45
2019-03-09T16:08:04.294Z,11.11
2019-03-09T16:10:37.759Z,11.07
2019-03-09T16:13:11.137Z,10.89
2019-03-09T16:15:44.474Z,10.93
2019-03-09T16:18:17.831Z,10.71
2019-03-09T16:20:51.200Z,10.73
2019-03-09T16:23:24.826Z,10.67
2019-03-09T16:25:58.257Z,10.40
2019-03-09T16:28:31.586Z,10.63
2019-03-09T16:31:05.018Z,10.75
2019-03-09T16:33:38.452Z,10.58
2019-03-09T16:36:11.814Z,10.62
2019-03-09T16:38:45.261Z,10.64
2019-03-09T16:41:18.648Z,10.46
2019-03-09T16:43:52.119Z,10.36
2019-03-09T16:46:25.527Z,10.37
2019-03-09T16:48:58.873Z,10.35
2019-03-09T16:51:32.310Z,10.26
2019-03-09T16:54:05.655Z,10.22
2019-03-09T16:56:39.098Z,10.24
2019-03-09T16:59:12.443Z,10.38
2019-03-09T17:01:45.871Z,10.42
2019-03-09T17:04:19.211Z,10.42
2019-03-09T17:06:52.570Z,10.40
2019-03-09T17:09:25.969Z,10.53
2019-03-09T17:11:59.424Z,10.57
2019-03-09T17:14:32.771Z,10.41
2019-03-09T17:17:06.146Z,10.39
2019-03-09T17:19:39.617Z,10.44
2019-03-09T17:22:13.050Z,10.49
2019-03-09T17:24:46.384Z,10.50
2019-03-09T17:27:19.742Z,10.50
2019-03-09T17:29:53.150Z,10.43
2019-03-09T17:32:26.537Z,10.47
2019-03-09T17:34:59.955Z,10.44
2019-03-09T17:37:33.327Z,10.50
2019-03-09T17:40:08.796Z,10.47
2019-03-09T17:42:42.293Z,10.46
2019-03-09T17:45:27.208Z,10.18
2019-03-09T17:48:00.677Z,10.21
2019-03-09T17:50:34.041Z,10.43
2019-03-09T17:53:07.524Z,10.41
2019-03-09T17:55:40.919Z,10.16
2019-03-09T17:58:14.283Z,10.15
2019-03-09T18:00:48.561Z,10.24
2019-03-09T18:03:21.982Z,10.15
2019-03-09T18:05:55.402Z,10.10
2019-03-09T18:08:28.790Z,9.92
2019-03-09T18:11:08.328Z,10.11
2019-03-09T18:13:41.754Z,9.77
2019-03-09T18:16:15.081Z,9.97
2019-03-09T18:18:48.523Z,9.87
2019-03-09T18:21:21.875Z,9.79
2019-03-09T18:23:55.230Z,9.63
2019-03-09T18:26:28.560Z,9.22
2019-03-09T18:29:01.948Z,9.44
2019-03-09T18:31:35.277Z,9.30
2019-03-09T18:34:08.644Z,9.16
2019-03-09T18:36:42.041Z,9.20
2019-03-09T18:39:15.469Z,8.97
2019-03-09T18:41:48.804Z,8.93
2019-03-09T18:44:22.176Z,9.05
2019-03-09T18:46:55.578Z,8.98
2019-03-09T18:49:28.963Z,8.76
2019-03-09T18:52:02.279Z,8.60
2019-03-09T18:54:35.631Z,8.35
2019-03-09T18:57:09.053Z,8.34
2019-03-09T18:59:42.572Z,8.50
2019-03-09T19:02:16.126Z,8.35
2019-03-09T19:04:49.485Z,8.27
2019-03-09T19:07:22.885Z,8.30
2019-03-09T19:09:56.497Z,8.08
2019-03-09T19:12:29.892Z,8.10
2019-03-09T19:15:03.256Z,8.03
2019-03-09T19:17:36.582Z,8.16
2019-03-09T19:20:14.565Z,8.18
2019-03-09T19:22:48.034Z,8.08
2019-03-09T19:25:21.464Z,8.01
2019-03-09T19:27:54.802Z,7.99
2019-03-09T19:30:28.191Z,8.07
2019-03-09T19:33:01.527Z,7.95
2019-03-09T19:35:34.891Z,7.88
2019-03-09T19:38:08.279Z,7.93
2019-03-09T19:40:41.725Z,7.94
2019-03-09T19:43:15.065Z,8.00
2019-03-09T19:45:48.503Z,8.04
2019-03-09T19:48:21.844Z,8.11
2019-03-09T19:50:55.290Z,8.06
2019-03-09T19:53:28.615Z,7.93
2019-03-09T19:56:01.984Z,7.98
2019-03-09T19:58:35.423Z,8.11
2019-03-09T20:01:08.819Z,8.00
2019-03-09T20:03:42.243Z,8.02
2019-03-09T20:06:15.645Z,8.00
2019-03-09T20:08:49.006Z,7.95
2019-03-09T20:11:22.392Z,7.93
2019-03-09T20:13:55.755Z,7.93
2019-03-09T20:16:29.091Z,7.94
2019-03-09T20:19:02.546Z,7.99
2019-03-09T20:21:35.841Z,7.98
2019-03-09T20:24:09.279Z,8.10
2019-03-09T20:26:42.676Z,8.23
2019-03-09T20:29:16.098Z,8.00
2019-03-09T20:31:49.534Z,8.13
2019-03-09T20:34:22.899Z,8.08
2019-03-09T20:36:56.229Z,7.94
2019-03-09T20:39:29.690Z,8.10
2019-03-09T20:42:03.135Z,8.34
2019-03-09T20:44:36.496Z,8.37
2019-03-09T20:47:09.849Z,8.46
2019-03-09T20:49:43.218Z,8.40
2019-03-09T20:52:16.636Z,8.39
2019-03-09T20:54:50.000Z,8.32
2019-03-09T20:57:23.348Z,8.43
2019-03-09T20:59:56.739Z,8.36
2019-03-09T21:02:30.155Z,8.53
2019-03-09T21:05:04.195Z,8.30
2019-03-09T21:07:37.580Z,8.41
2019-03-09T21:10:16.713Z,8.42
2019-03-09T21:13:03.926Z,8.44
2019-03-09T21:15:37.404Z,8.52
2019-03-09T21:18:10.741Z,8.45
2019-03-09T21:20:44.151Z,8.30
2019-03-09T21:23:17.489Z,8.21
2019-03-09T21:25:50.933Z,8.32
2019-03-09T21:28:24.258Z,8.35
2019-03-09T21:30:57.678Z,8.29
2019-03-09T21:33:31.002Z,8.15
2019-03-09T21:36:04.364Z,8.39
2019-03-09T21:38:38.143Z,8.34
2019-03-09T21:41:13.262Z,8.31
2019-03-09T21:43:47.072Z,8.30
2019-03-09T21:46:20.443Z,8.19
2019-03-09T21:48:53.784Z,8.27
2019-03-09T21:51:27.156Z,8.27
2019-03-09T21:54:00.492Z,8.18
2019-03-09T21:56:33.863Z,8.27
2019-03-09T21:59:07.614Z,8.22
2019-03-09T22:01:40.988Z,8.24
2019-03-09T22:04:14.308Z,8.03
2019-03-09T22:06:47.804Z,8.12
2019-03-09T22:09:21.148Z,7.92
2019-03-09T22:11:54.636Z,8.07
2019-03-09T22:14:27.985Z,7.97
2019-03-09T22:17:01.342Z,8.02
2019-03-09T22:19:34.687Z,7.92
2019-03-09T22:22:08.128Z,8.06
2019-03-09T22:24:41.455Z,8.00
2019-03-09T22:27:14.816Z,7.87
2019-03-09T22:29:48.179Z,7.94
2019-03-09T22:32:21.511Z,7.96
2019-03-09T22:34:54.835Z,7.93
2019-03-09T22:37:28.197Z,7.94
2019-03-09T22:40:01.537Z,7.95
2019-03-09T22:42:34.912Z,7.72
2019-03-09T22:45:12.938Z,7.78
2019-03-09T22:47:46.389Z,7.82
2019-03-09T22:50:24.035Z,7.78
2019-03-09T22:52:57.439Z,7.84
2019-03-09T22:55:30.905Z,7.84
2019-03-09T22:58:04.310Z,7.86
2019-03-09T23:00:37.875Z,7.95
2019-03-09T23:03:11.344Z,7.88
2019-03-09T23:05:44.769Z,7.80
2019-03-09T23:08:18.170Z,7.69
2019-03-09T23:10:51.600Z,7.69
2019-03-09T23:13:24.996Z,7.77
2019-03-09T23:15:58.666Z,7.70
2019-03-09T23:18:32.336Z,7.79
2019-03-09T23:21:06.051Z,7.77
2019-03-09T23:23:39.674Z,7.87
2019-03-09T23:26:13.392Z,7.84
2019-03-09T23:28:47.752Z,7.91
2019-03-09T23:31:21.493Z,7.87
2019-03-09T23:33:55.092Z,7.81
2019-03-09T23:36:28.704Z,7.77
2019-03-09T23:39:02.157Z,7.83
2019-03-09T23:41:35.594Z,7.76
2019-03-09T23:44:09.012Z,7.77
2019-03-09T23:46:42.465Z,7.77
2019-03-09T23:49:15.929Z,7.95
2019-03-09T23:51:49.365Z,7.90
2019-03-09T23:54:22.813Z,7.93
2019-03-09T23:56:56.242Z,8.02
2019-03-09T23:59:32.451Z,7.96
